Time;durP1;ratioP1;P1;durP2;ratioP2;P2;SDS_P1;SDS_P2;PMS_P1;PMS_P2;Temp;Humidity;BMP_temperature;BMP_pressure;BME280_temperature;BME280_humidity;BME280_pressure;Samples;Min_cycle;Max_cycle;Signal;HPM_P1;HPM_P2
2022/06/01 00:00:29;;;;;;;17.08;15.38;;;;;;;;;;5053040;28;20033;-83
2022/06/01 00:02:55;;;;;;;23.90;15.90;;;;;;;;;;5070357;28;20127;-83
2022/06/01 00:05:21;;;;;;;16.90;15.18;;;;;;;;;;5072531;28;20047;-83
2022/06/01 00:07:47;;;;;;;16.15;14.55;;;;;;;;;;5073856;28;20504;-83
2022/06/01 00:10:14;;;;;;;19.08;14.35;;;;;;;;;;5068812;28;20237;-83
2022/06/01 00:12:40;;;;;;;17.92;16.05;;;;;;;;;;5066667;28;20131;-83
2022/06/01 00:15:06;;;;;;;19.00;15.70;;;;;;;;;;5058978;28;20503;-83
2022/06/01 00:17:33;;;;;;;17.58;15.45;;;;;;;;;;5061902;28;20040;-83
2022/06/01 00:19:59;;;;;;;16.58;14.88;;;;;;;;;;5063391;28;20052;-83
2022/06/01 00:22:25;;;;;;;15.82;14.13;;;;;;;;;;5052435;28;20045;-83
2022/06/01 00:24:51;;;;;;;20.23;16.50;;;;;;;;;;5052403;28;20063;-83
2022/06/01 00:27:18;;;;;;;17.88;15.98;;;;;;;;;;5051215;28;20094;-83
2022/06/01 00:29:44;;;;;;;17.77;15.88;;;;;;;;;;5052403;28;20049;-83
2022/06/01 00:32:11;;;;;;;18.35;15.70;;;;;;;;;;5059494;28;20053;-83
2022/06/01 00:34:38;;;;;;;18.83;15.75;;;;;;;;;;5058490;28;20049;-83
2022/06/01 00:37:04;;;;;;;19.42;16.30;;;;;;;;;;5066459;28;20524;-83
2022/06/01 00:39:30;;;;;;;16.88;15.18;;;;;;;;;;5070938;28;20379;-83
2022/06/01 00:42:08;;;;;;;17.98;16.05;;;;;;;;;;5069911;28;20120;-83
2022/06/01 00:44:34;;;;;;;17.48;15.80;;;;;;;;;;5051203;28;20047;-83
2022/06/01 00:47:00;;;;;;;19.27;17.17;;;;;;;;;;5052569;28;20045;-83
2022/06/01 00:49:26;;;;;;;17.50;15.02;;;;;;;;;;5051838;28;20486;-83
2022/06/01 00:51:53;;;;;;;18.00;16.20;;;;;;;;;;5068869;28;20060;-83
2022/06/01 00:54:19;;;;;;;19.10;17.05;;;;;;;;;;5054643;28;20047;-83
2022/06/01 00:56:46;;;;;;;16.40;14.70;;;;;;;;;;5072603;28;20079;-83
2022/06/01 00:59:15;;;;;;;17.52;15.73;;;;;;;;;;5052564;28;20406;-82
2022/06/01 01:01:41;;;;;;;16.17;14.57;;;;;;;;;;5070340;28;20521;-83
2022/06/01 01:04:08;;;;;;;16.42;14.63;;;;;;;;;;5072520;28;20094;-83
2022/06/01 01:06:36;;;;;;;19.45;17.38;;;;;;;;;;5062225;28;20115;-83
2022/06/01 01:09:03;;;;;;;17.58;15.77;;;;;;;;;;5052049;28;20045;-83
2022/06/01 01:11:42;;;;;;;15.13;13.60;;;;;;;;;;5048119;28;20122;-83
2022/06/01 01:14:09;;;;;;;12.93;11.73;;;;;;;;;;5056715;28;20506;-83
2022/06/01 01:16:35;;;;;;;14.25;12.02;;;;;;;;;;5051410;28;20484;-83
2022/06/01 01:19:03;;;;;;;13.82;12.27;;;;;;;;;;5052127;28;20041;-83
2022/06/01 01:21:29;;;;;;;15.75;12.05;;;;;;;;;;5051930;28;20196;-83
2022/06/01 01:24:01;;;;;;;13.50;12.20;;;;;;;;;;5050673;28;20053;-83
2022/06/01 01:26:28;;;;;;;14.73;13.23;;;;;;;;;;5050587;28;20048;-83
2022/06/01 01:28:54;;;;;;;14.80;13.30;;;;;;;;;;5058028;28;20055;-83
2022/06/01 01:31:21;;;;;;;15.63;14.07;;;;;;;;;;5064466;28;20128;-83
2022/06/01 01:33:49;;;;;;;18.25;15.48;;;;;;;;;;5069292;28;20048;-83
2022/06/01 01:36:16;;;;;;;16.55;14.82;;;;;;;;;;5051912;28;20488;-83
2022/06/01 01:39:01;;;;;;;16.30;14.60;;;;;;;;;;5052050;28;20119;-83
2022/06/01 01:41:42;;;;;;;20.65;17.63;;;;;;;;;;5051535;28;20041;-83
2022/06/01 01:44:27;;;;;;;18.35;16.45;;;;;;;;;;5038197;28;20048;-83
2022/06/01 01:46:54;;;;;;;20.48;17.40;;;;;;;;;;5059270;28;20052;-82
2022/06/01 01:49:21;;;;;;;21.52;18.60;;;;;;;;;;5070907;28;20485;-83
2022/06/01 01:51:47;;;;;;;20.05;17.95;;;;;;;;;;5058528;28;20061;-83
2022/06/01 01:54:26;;;;;;;20.02;17.60;;;;;;;;;;5050457;28;20156;-83
2022/06/01 01:57:07;;;;;;;19.48;17.45;;;;;;;;;;5068697;28;20044;-83
2022/06/01 01:59:48;;;;;;;20.42;18.25;;;;;;;;;;5034136;28;20055;-83
2022/06/01 02:02:21;;;;;;;19.77;17.80;;;;;;;;;;5064115;28;20052;-82
2022/06/01 02:08:01;;;;;;;19.95;17.95;;;;;;;;;;5083639;28;20049;-83
2022/06/01 02:13:14;;;;;;;21.65;19.45;;;;;;;;;;5048998;28;20466;-83
2022/06/01 02:15:44;;;;;;;23.20;20.80;;;;;;;;;;5050277;28;20509;-83
2022/06/01 02:18:15;;;;;;;21.80;19.33;;;;;;;;;;5053283;28;20056;-83
2022/06/01 02:20:42;;;;;;;20.63;18.48;;;;;;;;;;5065039;28;20506;-83
2022/06/01 02:23:11;;;;;;;22.95;20.55;;;;;;;;;;5049230;28;20040;-83
2022/06/01 02:25:37;;;;;;;22.83;20.30;;;;;;;;;;5050871;28;20111;-83
2022/06/01 02:28:04;;;;;;;23.42;20.33;;;;;;;;;;5064104;28;20504;-83
2022/06/01 02:30:33;;;;;;;20.20;18.17;;;;;;;;;;5070091;28;20132;-83
2022/06/01 02:33:00;;;;;;;20.58;17.80;;;;;;;;;;5069442;28;20512;-83
2022/06/01 02:35:27;;;;;;;20.42;18.35;;;;;;;;;;5062359;28;20098;-83
2022/06/01 02:37:56;;;;;;;22.25;18.65;;;;;;;;;;5049012;28;20330;-83
2022/06/01 02:40:24;;;;;;;19.95;17.25;;;;;;;;;;5049592;28;20127;-83
2022/06/01 02:42:51;;;;;;;21.98;18.75;;;;;;;;;;5068383;28;20055;-83
2022/06/01 02:45:18;;;;;;;20.33;17.77;;;;;;;;;;5058541;28;20045;-83
2022/06/01 02:47:45;;;;;;;20.05;17.42;;;;;;;;;;5049432;28;20517;-83
2022/06/01 02:50:16;;;;;;;21.60;17.70;;;;;;;;;;5051062;28;20045;-83
2022/06/01 02:52:43;;;;;;;21.88;17.55;;;;;;;;;;5050670;28;20041;-83
2022/06/01 02:55:10;;;;;;;19.40;17.35;;;;;;;;;;5049715;28;20127;-83
2022/06/01 02:57:37;;;;;;;20.65;16.90;;;;;;;;;;5050983;28;20512;-83
2022/06/01 03:00:07;;;;;;;21.50;17.25;;;;;;;;;;5048243;28;20060;-83
2022/06/01 03:02:34;;;;;;;21.67;18.63;;;;;;;;;;5049002;28;20098;-83
2022/06/01 03:05:00;;;;;;;19.38;17.38;;;;;;;;;;5057102;28;20497;-83
2022/06/01 03:07:26;;;;;;;22.95;20.02;;;;;;;;;;5062919;28;20043;-83
2022/06/01 03:09:52;;;;;;;23.48;19.90;;;;;;;;;;5048360;28;20048;-83
2022/06/01 03:12:18;;;;;;;23.88;20.23;;;;;;;;;;5032111;28;20037;-83
2022/06/01 03:14:44;;;;;;;24.35;20.33;;;;;;;;;;5048718;28;20135;-83
2022/06/01 03:17:10;;;;;;;29.45;21.55;;;;;;;;;;5068170;28;20040;-83
2022/06/01 03:19:36;;;;;;;25.77;20.70;;;;;;;;;;5067023;28;20032;-83
2022/06/01 03:22:04;;;;;;;21.20;18.70;;;;;;;;;;5047721;28;20080;-83
2022/06/01 03:24:30;;;;;;;26.17;20.52;;;;;;;;;;5052022;28;20400;-83
2022/06/01 03:26:57;;;;;;;21.70;19.38;;;;;;;;;;5068727;28;20097;-83
2022/06/01 03:29:24;;;;;;;20.83;18.52;;;;;;;;;;5057106;28;20045;-83
2022/06/01 03:31:51;;;;;;;24.30;20.02;;;;;;;;;;5048824;28;20052;-83
2022/06/01 03:34:17;;;;;;;23.85;19.40;;;;;;;;;;5056179;28;20048;-83
2022/06/01 03:36:43;;;;;;;21.88;18.33;;;;;;;;;;5058425;28;20055;-83
2022/06/01 03:39:09;;;;;;;24.90;19.67;;;;;;;;;;5048152;28;20048;-84
2022/06/01 03:41:35;;;;;;;19.95;17.85;;;;;;;;;;5049044;28;20041;-83
2022/06/01 03:46:46;;;;;;;20.45;18.25;;;;;;;;;;5062286;28;20046;-83
2022/06/01 03:49:13;;;;;;;21.30;18.60;;;;;;;;;;5041697;28;20056;-83
2022/06/01 03:51:39;;;;;;;21.27;19.00;;;;;;;;;;5068203;28;20052;-84
2022/06/01 03:54:06;;;;;;;23.70;19.90;;;;;;;;;;5061486;28;20562;-83
2022/06/01 03:56:32;;;;;;;20.90;18.70;;;;;;;;;;5070168;28;20055;-83
2022/06/01 03:58:58;;;;;;;25.20;19.50;;;;;;;;;;5056980;28;20052;-83
2022/06/01 04:01:25;;;;;;;18.65;16.75;;;;;;;;;;5049549;28;20037;-84
2022/06/01 04:03:51;;;;;;;19.40;17.20;;;;;;;;;;5048732;28;20049;-83
2022/06/01 04:06:17;;;;;;;22.42;18.33;;;;;;;;;;5068687;28;20041;-83
2022/06/01 04:08:43;;;;;;;21.65;17.15;;;;;;;;;;5068459;28;20094;-83
2022/06/01 04:11:09;;;;;;;20.42;18.23;;;;;;;;;;5069377;28;20090;-83
2022/06/01 04:13:35;;;;;;;19.10;17.05;;;;;;;;;;5057252;28;20452;-83
2022/06/01 04:16:02;;;;;;;19.33;16.35;;;;;;;;;;5049569;28;20064;-83
2022/06/01 04:18:28;;;;;;;21.25;19.05;;;;;;;;;;5068253;28;20055;-83
2022/06/01 04:20:54;;;;;;;19.90;16.50;;;;;;;;;;5069199;28;20052;-83
2022/06/01 04:23:20;;;;;;;19.02;16.80;;;;;;;;;;5054732;28;20083;-83
2022/06/01 04:25:46;;;;;;;19.40;16.67;;;;;;;;;;5049550;28;20045;-83
2022/06/01 04:28:12;;;;;;;18.23;16.33;;;;;;;;;;5048498;28;20501;-83
2022/06/01 04:30:38;;;;;;;21.25;17.30;;;;;;;;;;5049244;28;20128;-83
2022/06/01 04:33:05;;;;;;;20.52;18.33;;;;;;;;;;5068112;28;20048;-83
2022/06/01 04:35:31;;;;;;;20.08;17.80;;;;;;;;;;5067983;28;20048;-83
2022/06/01 04:38:15;;;;;;;23.75;18.38;;;;;;;;;;5066949;28;20041;-84
2022/06/01 04:40:42;;;;;;;18.80;16.52;;;;;;;;;;5065814;28;20053;-83
2022/06/01 04:43:08;;;;;;;20.98;16.85;;;;;;;;;;5072616;28;20351;-83
2022/06/01 04:45:34;;;;;;;21.30;18.80;;;;;;;;;;5052464;28;20049;-83
2022/06/01 04:48:00;;;;;;;21.27;18.17;;;;;;;;;;5051434;28;20060;-83
2022/06/01 04:50:26;;;;;;;19.13;17.15;;;;;;;;;;5052500;28;20057;-83
2022/06/01 04:52:52;;;;;;;22.17;19.00;;;;;;;;;;5062168;28;20574;-83
2022/06/01 04:55:18;;;;;;;20.55;18.42;;;;;;;;;;5069516;28;20132;-83
2022/06/01 04:57:45;;;;;;;20.20;17.58;;;;;;;;;;5067623;28;20048;-83
2022/06/01 05:00:11;;;;;;;18.52;15.38;;;;;;;;;;5052100;28;20041;-84
2022/06/01 05:02:37;;;;;;;18.85;16.25;;;;;;;;;;5050771;28;20448;-83
2022/06/01 05:05:04;;;;;;;19.63;16.85;;;;;;;;;;5052374;28;20037;-84
2022/06/01 05:07:30;;;;;;;20.30;18.02;;;;;;;;;;5066537;28;20106;-83
2022/06/01 05:09:56;;;;;;;27.52;20.30;;;;;;;;;;5069665;28;20048;-84
2022/06/01 05:12:22;;;;;;;19.58;16.70;;;;;;;;;;5054609;28;20099;-84
2022/06/01 05:14:48;;;;;;;13.20;11.90;;;;;;;;;;5065398;28;20045;-83
2022/06/01 05:17:14;;;;;;;12.43;11.23;;;;;;;;;;5042144;28;20060;-83
2022/06/01 05:19:40;;;;;;;11.60;10.45;;;;;;;;;;5053420;28;20437;-83
2022/06/01 05:22:06;;;;;;;13.38;11.60;;;;;;;;;;5051940;28;20504;-83
2022/06/01 05:24:32;;;;;;;15.45;12.57;;;;;;;;;;5050066;28;20512;-84
2022/06/01 05:26:59;;;;;;;23.63;14.30;;;;;;;;;;5052037;28;20072;-83
2022/06/01 05:29:25;;;;;;;17.55;14.68;;;;;;;;;;5051196;28;20053;-83
2022/06/01 05:31:51;;;;;;;21.42;17.38;;;;;;;;;;5069384;28;20045;-81
2022/06/01 05:34:17;;;;;;;20.27;17.27;;;;;;;;;;5061537;28;20064;-82
2022/06/01 05:36:43;;;;;;;21.35;17.27;;;;;;;;;;5048822;28;20049;-82
2022/06/01 05:39:09;;;;;;;19.15;17.05;;;;;;;;;;5051369;28;20394;-83
2022/06/01 05:41:35;;;;;;;19.90;16.50;;;;;;;;;;5051824;28;20224;-82
2022/06/01 05:44:01;;;;;;;19.00;16.15;;;;;;;;;;5051488;28;20099;-82
2022/06/01 05:46:28;;;;;;;22.08;17.48;;;;;;;;;;5051596;28;20040;-83
2022/06/01 05:48:54;;;;;;;19.30;16.58;;;;;;;;;;5049437;28;20251;-82
2022/06/01 05:51:21;;;;;;;19.48;15.07;;;;;;;;;;5064442;28;20127;-84
2022/06/01 05:53:47;;;;;;;19.23;16.45;;;;;;;;;;5058065;28;20054;-83
2022/06/01 05:56:13;;;;;;;20.45;17.50;;;;;;;;;;5065642;28;20033;-84
2022/06/01 05:58:39;;;;;;;20.60;18.10;;;;;;;;;;5057033;28;20135;-83
2022/06/01 06:01:07;;;;;;;23.65;19.02;;;;;;;;;;5071402;28;20115;-95
2022/06/01 06:03:34;;;;;;;20.98;17.58;;;;;;;;;;5070487;28;20501;-83
2022/06/01 06:06:13;;;;;;;21.80;18.17;;;;;;;;;;5050939;28;20041;-83
2022/06/01 06:08:44;;;;;;;23.50;18.73;;;;;;;;;;5050619;28;20049;-83
2022/06/01 06:11:11;;;;;;;22.48;18.45;;;;;;;;;;5050292;28;20041;-83
2022/06/01 06:13:37;;;;;;;20.55;16.98;;;;;;;;;;5053435;28;20086;-84
2022/06/01 06:16:04;;;;;;;19.08;16.83;;;;;;;;;;5050041;28;20079;-83
2022/06/01 06:18:30;;;;;;;18.10;16.02;;;;;;;;;;5071157;28;20051;-85
2022/06/01 06:20:57;;;;;;;25.42;17.17;;;;;;;;;;5064649;28;20077;-85
2022/06/01 06:23:23;;;;;;;22.05;16.88;;;;;;;;;;5050480;28;20115;-85
2022/06/01 06:25:49;;;;;;;19.98;17.00;;;;;;;;;;5050430;28;20128;-85
2022/06/01 06:28:15;;;;;;;20.17;16.67;;;;;;;;;;5050116;28;20082;-84
2022/06/01 06:30:42;;;;;;;19.55;14.07;;;;;;;;;;5057231;28;20469;-85
2022/06/01 06:33:08;;;;;;;17.02;13.02;;;;;;;;;;5050692;28;20103;-85
2022/06/01 06:35:34;;;;;;;12.73;11.10;;;;;;;;;;5055474;28;20037;-85
2022/06/01 06:38:00;;;;;;;10.38;9.23;;;;;;;;;;5068888;28;20091;-85
2022/06/01 06:40:27;;;;;;;11.15;10.05;;;;;;;;;;5050805;28;20485;-85
2022/06/01 06:42:53;;;;;;;11.43;10.18;;;;;;;;;;5049981;28;20529;-85
2022/06/01 06:45:19;;;;;;;12.05;9.57;;;;;;;;;;5049962;28;20128;-85
2022/06/01 06:47:45;;;;;;;11.90;10.10;;;;;;;;;;5049363;28;20203;-84
2022/06/01 06:50:12;;;;;;;12.48;10.10;;;;;;;;;;5048772;28;20059;-85
2022/06/01 06:52:39;;;;;;;8.65;7.75;;;;;;;;;;5061378;28;20059;-85
2022/06/01 06:55:06;;;;;;;8.82;6.55;;;;;;;;;;5068944;28;20086;-85
2022/06/01 06:57:32;;;;;;;8.38;6.78;;;;;;;;;;5057007;28;20053;-85
2022/06/01 06:59:58;;;;;;;7.07;6.15;;;;;;;;;;5053136;28;20497;-85
2022/06/01 07:02:24;;;;;;;10.07;6.55;;;;;;;;;;5046438;28;20143;-85
2022/06/01 07:04:50;;;;;;;13.32;7.13;;;;;;;;;;5049420;28;20106;-85
2022/06/01 07:07:17;;;;;;;10.73;7.10;;;;;;;;;;5048109;28;20088;-84
2022/06/01 07:09:43;;;;;;;11.95;8.05;;;;;;;;;;5044447;28;20041;-83
2022/06/01 07:12:10;;;;;;;11.93;7.35;;;;;;;;;;5048687;28;20405;-82
2022/06/01 07:14:36;;;;;;;10.57;7.40;;;;;;;;;;5038427;28;20079;-84
2022/06/01 07:17:03;;;;;;;11.40;7.78;;;;;;;;;;5071895;28;20044;-90
2022/06/01 07:19:29;;;;;;;11.48;7.80;;;;;;;;;;5068625;28;20185;-84
2022/06/01 07:21:55;;;;;;;10.82;7.60;;;;;;;;;;5052683;28;20057;-84
2022/06/01 07:24:22;;;;;;;8.45;5.60;;;;;;;;;;5038939;28;20075;-91
2022/06/01 07:26:49;;;;;;;7.18;4.90;;;;;;;;;;5047352;28;20049;-84
2022/06/01 07:29:16;;;;;;;5.82;5.22;;;;;;;;;;5047913;28;20107;-84
2022/06/01 07:31:43;;;;;;;6.63;5.30;;;;;;;;;;5032651;28;20099;-85
2022/06/01 07:34:09;;;;;;;5.60;5.10;;;;;;;;;;5055323;28;20566;-85
2022/06/01 07:36:35;;;;;;;5.00;4.50;;;;;;;;;;5051630;28;20543;-85
2022/06/01 07:44:41;;;;;;;5.55;4.85;;;;;;;;;;5030843;28;20126;-88
2022/06/01 07:47:08;;;;;;;6.63;5.80;;;;;;;;;;5049693;28;20029;-85
2022/06/01 07:49:34;;;;;;;6.88;6.28;;;;;;;;;;5049728;28;20053;-87
2022/06/01 07:52:00;;;;;;;7.22;6.15;;;;;;;;;;5047370;28;20053;-85
2022/06/01 07:54:26;;;;;;;6.90;6.28;;;;;;;;;;5048790;28;20096;-84
2022/06/01 07:56:52;;;;;;;8.02;7.30;;;;;;;;;;5059905;28;20052;-88
2022/06/01 07:59:19;;;;;;;8.18;6.50;;;;;;;;;;5067344;28;20074;-92
2022/06/01 08:01:45;;;;;;;7.15;6.45;;;;;;;;;;5048865;28;20041;-86
2022/06/01 08:04:12;;;;;;;6.50;5.90;;;;;;;;;;5066945;28;20032;-85
2022/06/01 08:06:39;;;;;;;8.60;6.90;;;;;;;;;;5069954;28;20047;-85
2022/06/01 08:09:05;;;;;;;7.75;6.90;;;;;;;;;;5056660;28;20567;-85
2022/06/01 08:14:16;;;;;;;6.57;5.88;;;;;;;;;;5052658;28;20387;-85
2022/06/01 08:16:44;;;;;;;6.20;5.70;;;;;;;;;;5052397;28;20075;-85
2022/06/01 08:19:11;;;;;;;6.60;5.93;;;;;;;;;;5073285;28;20127;-85
2022/06/01 08:21:37;;;;;;;7.05;6.45;;;;;;;;;;5071640;28;20485;-85
2022/06/01 08:24:05;;;;;;;7.75;6.95;;;;;;;;;;5031990;28;20053;-85
2022/06/01 08:26:31;;;;;;;7.75;7.05;;;;;;;;;;5058373;28;20284;-85
2022/06/01 08:28:58;;;;;;;7.57;6.88;;;;;;;;;;5051278;28;20101;-85
2022/06/01 08:31:27;;;;;;;7.03;6.40;;;;;;;;;;5052035;28;20049;-85
2022/06/01 08:34:00;;;;;;;6.80;6.10;;;;;;;;;;5062631;28;20052;-85
2022/06/01 08:36:26;;;;;;;7.82;5.85;;;;;;;;;;5072094;28;20045;-85
2022/06/01 08:38:52;;;;;;;6.40;5.80;;;;;;;;;;5054661;28;20631;-85
2022/06/01 08:41:20;;;;;;;7.05;6.35;;;;;;;;;;5053218;28;20048;-85
2022/06/01 08:43:50;;;;;;;6.60;5.43;;;;;;;;;;5042584;28;20056;-85
2022/06/01 08:46:17;;;;;;;5.25;4.75;;;;;;;;;;5048993;28;20112;-86
2022/06/01 08:48:52;;;;;;;6.35;5.75;;;;;;;;;;5052394;28;20410;-92
2022/06/01 08:51:20;;;;;;;6.80;6.00;;;;;;;;;;5051819;28;20053;-85
2022/06/01 08:53:46;;;;;;;6.03;5.53;;;;;;;;;;5052677;28;20078;-86
2022/06/01 08:56:18;;;;;;;5.90;5.05;;;;;;;;;;5050586;28;20107;-86
2022/06/01 08:58:44;;;;;;;5.55;4.97;;;;;;;;;;5051274;28;20053;-86
2022/06/01 09:01:10;;;;;;;5.78;5.25;;;;;;;;;;5066024;28;20438;-86
2022/06/01 09:03:40;;;;;;;5.03;4.57;;;;;;;;;;5072706;28;20659;-86
2022/06/01 09:06:29;;;;;;;5.95;5.45;;;;;;;;;;5072190;28;20041;-86
2022/06/01 09:08:58;;;;;;;5.18;4.68;;;;;;;;;;5067983;28;20060;-86
2022/06/01 09:11:28;;;;;;;6.25;5.75;;;;;;;;;;5070889;28;20048;-86
2022/06/01 09:13:54;;;;;;;6.90;6.20;;;;;;;;;;5066759;28;20405;-92
2022/06/01 09:16:22;;;;;;;7.55;5.90;;;;;;;;;;5052177;28;20393;-88
2022/06/01 09:18:49;;;;;;;7.28;6.57;;;;;;;;;;5052564;28;20080;-85
2022/06/01 09:24:06;;;;;;;7.07;6.38;;;;;;;;;;5053193;28;20089;-85
2022/06/01 09:26:32;;;;;;;8.10;6.43;;;;;;;;;;5071003;28;20722;-85
2022/06/01 09:28:59;;;;;;;5.40;4.90;;;;;;;;;;5054041;28;20051;-85
2022/06/01 09:31:36;;;;;;;5.00;4.50;;;;;;;;;;5071010;28;20131;-85
2022/06/01 09:34:21;;;;;;;5.07;4.55;;;;;;;;;;5052376;28;20049;-85
2022/06/01 09:36:54;;;;;;;4.65;4.10;;;;;;;;;;5070930;28;20387;-82
2022/06/01 09:39:20;;;;;;;5.38;4.30;;;;;;;;;;5032347;28;20512;-86
2022/06/01 09:41:46;;;;;;;5.18;4.70;;;;;;;;;;5048935;28;20045;-86
2022/06/01 09:44:18;;;;;;;5.55;5.05;;;;;;;;;;5070582;28;20518;-84
2022/06/01 09:46:47;;;;;;;5.70;4.60;;;;;;;;;;5053501;28;20076;-88
2022/06/01 09:49:19;;;;;;;6.38;5.22;;;;;;;;;;5048978;28;20040;-84
2022/06/01 09:51:46;;;;;;;6.60;5.18;;;;;;;;;;5070510;28;20136;-91
2022/06/01 09:54:21;;;;;;;6.07;4.47;;;;;;;;;;5052079;28;20060;-86
2022/06/01 09:56:48;;;;;;;7.50;5.47;;;;;;;;;;5050120;28;20138;-85
2022/06/01 10:07:44;;;;;;;5.30;4.40;;;;;;;;;;5048602;28;20132;-84
2022/06/01 10:10:21;;;;;;;4.28;3.88;;;;;;;;;;5052591;28;20048;-84
2022/06/01 10:12:51;;;;;;;4.95;3.85;;;;;;;;;;5053399;28;20059;-85
2022/06/01 10:15:36;;;;;;;4.07;3.65;;;;;;;;;;5068411;28;20048;-85
2022/06/01 10:18:17;;;;;;;4.32;3.67;;;;;;;;;;5069454;28;20076;-84
2022/06/01 10:20:56;;;;;;;5.60;4.30;;;;;;;;;;5071661;28;20127;-84
2022/06/01 10:23:25;;;;;;;4.43;4.03;;;;;;;;;;5054247;28;20384;-84
2022/06/01 10:25:51;;;;;;;5.28;4.75;;;;;;;;;;5048902;28;20809;-85
2022/06/01 10:28:27;;;;;;;8.25;4.90;;;;;;;;;;5048053;28;20103;-86
2022/06/01 10:30:55;;;;;;;7.05;5.30;;;;;;;;;;5033193;28;20218;-86
2022/06/01 10:33:24;;;;;;;8.32;4.85;;;;;;;;;;5023974;28;20402;-85
2022/06/01 10:35:52;;;;;;;6.95;5.50;;;;;;;;;;5047827;28;20102;-84
2022/06/01 10:38:26;;;;;;;5.25;4.80;;;;;;;;;;5048252;28;20052;-84
2022/06/01 10:40:55;;;;;;;4.88;4.38;;;;;;;;;;5050144;28;20102;-89
2022/06/01 10:43:27;;;;;;;5.05;4.55;;;;;;;;;;5051202;28;20053;-90
2022/06/01 10:45:59;;;;;;;6.20;4.22;;;;;;;;;;5047159;28;20163;-84
2022/06/01 10:48:29;;;;;;;5.18;4.68;;;;;;;;;;5049302;28;20505;-84
2022/06/01 10:51:22;;;;;;;6.30;3.70;;;;;;;;;;5048449;28;20060;-84
2022/06/01 10:53:51;;;;;;;4.25;3.83;;;;;;;;;;5029595;28;20057;-84
2022/06/01 10:56:20;;;;;;;4.75;3.80;;;;;;;;;;5035902;28;20540;-84
2022/06/01 10:58:46;;;;;;;5.97;4.43;;;;;;;;;;5069285;28;20059;-84
2022/06/01 11:01:15;;;;;;;5.28;4.78;;;;;;;;;;5032299;28;20084;-84
2022/06/01 11:03:58;;;;;;;5.30;3.90;;;;;;;;;;5049186;28;20049;-84
2022/06/01 11:06:30;;;;;;;4.53;3.97;;;;;;;;;;5049369;28;20141;-84
2022/06/01 11:09:10;;;;;;;3.90;3.50;;;;;;;;;;5048658;28;20107;-84
2022/06/01 11:11:39;;;;;;;4.50;4.00;;;;;;;;;;5050622;28;20053;-84
2022/06/01 11:14:11;;;;;;;4.55;3.50;;;;;;;;;;5063064;28;20052;-84
2022/06/01 11:16:51;;;;;;;3.83;3.40;;;;;;;;;;5055721;28;20049;-85
2022/06/01 11:19:33;;;;;;;4.10;3.67;;;;;;;;;;5059309;28;20041;-88
2022/06/01 11:22:26;;;;;;;4.47;4.07;;;;;;;;;;5061473;28;20050;-85
2022/06/01 11:24:59;;;;;;;5.43;4.05;;;;;;;;;;5026248;28;20480;-86
2022/06/01 11:27:31;;;;;;;4.00;3.60;;;;;;;;;;5048082;28;20368;-86
2022/06/01 11:30:07;;;;;;;4.20;3.80;;;;;;;;;;5049573;28;20056;-86
2022/06/01 11:32:50;;;;;;;4.35;3.22;;;;;;;;;;5048828;28;20056;-86
2022/06/01 11:35:19;;;;;;;5.28;3.70;;;;;;;;;;5054673;28;20469;-86
2022/06/01 11:38:08;;;;;;;4.30;3.67;;;;;;;;;;5058990;28;20041;-86
2022/06/01 11:40:43;;;;;;;4.30;2.88;;;;;;;;;;5027092;28;20151;-86
2022/06/01 11:43:14;;;;;;;3.40;3.10;;;;;;;;;;5055645;28;20378;-86
2022/06/01 11:45:42;;;;;;;3.63;2.90;;;;;;;;;;5063154;28;20049;-86
2022/06/01 11:48:11;;;;;;;2.78;2.58;;;;;;;;;;5048267;28;20049;-86
2022/06/01 11:50:48;;;;;;;4.05;2.70;;;;;;;;;;5048973;28;20056;-86
2022/06/01 11:53:23;;;;;;;2.65;2.08;;;;;;;;;;5048507;28;20057;-86
2022/06/01 11:55:49;;;;;;;3.78;2.20;;;;;;;;;;5049979;28;20117;-86
2022/06/01 11:58:21;;;;;;;2.75;2.28;;;;;;;;;;5050259;28;20044;-86
2022/06/01 12:00:57;;;;;;;3.00;2.38;;;;;;;;;;5044666;28;20041;-86
2022/06/01 12:03:26;;;;;;;3.65;2.50;;;;;;;;;;5049422;28;20052;-86
2022/06/01 12:05:58;;;;;;;2.92;2.25;;;;;;;;;;5049055;28;20383;-87
2022/06/01 12:08:30;;;;;;;3.30;2.65;;;;;;;;;;5052641;28;20041;-85
2022/06/01 12:11:00;;;;;;;4.10;3.03;;;;;;;;;;5068261;28;20060;-89
2022/06/01 12:13:36;;;;;;;4.38;3.00;;;;;;;;;;5046885;28;20051;-87
2022/06/01 12:16:05;;;;;;;3.95;3.03;;;;;;;;;;5069635;28;20130;-86
2022/06/01 12:18:35;;;;;;;4.07;2.88;;;;;;;;;;5067722;28;20508;-85
2022/06/01 12:21:24;;;;;;;3.55;2.70;;;;;;;;;;5067203;28;20098;-86
2022/06/01 12:29:59;;;;;;;7.88;4.45;;;;;;;;;;5048317;28;20045;-87
2022/06/01 12:32:25;;;;;;;9.82;5.38;;;;;;;;;;5047839;28;20112;-87
2022/06/01 12:34:58;;;;;;;8.13;4.35;;;;;;;;;;5049088;28;20052;-86
2022/06/01 12:37:27;;;;;;;5.57;3.67;;;;;;;;;;5055088;28;20041;-87
2022/06/01 12:39:59;;;;;;;7.93;4.03;;;;;;;;;;5048489;28;20037;-87
2022/06/01 12:42:28;;;;;;;6.00;3.50;;;;;;;;;;5049009;28;20033;-87
2022/06/01 12:44:55;;;;;;;3.53;2.70;;;;;;;;;;5042210;28;20052;-87
2022/06/01 12:47:22;;;;;;;5.38;3.00;;;;;;;;;;5043615;28;20049;-87
2022/06/01 12:49:48;;;;;;;5.03;4.55;;;;;;;;;;5048622;28;20045;-87
2022/06/01 12:52:19;;;;;;;4.57;3.80;;;;;;;;;;5043638;28;20053;-87
2022/06/01 12:54:51;;;;;;;4.05;2.72;;;;;;;;;;5045973;28;20056;-87
2022/06/01 12:57:26;;;;;;;3.78;2.70;;;;;;;;;;5048064;28;20111;-87
2022/06/01 13:00:01;;;;;;;5.18;3.22;;;;;;;;;;5060920;28;20091;-83
2022/06/01 13:02:30;;;;;;;3.45;2.72;;;;;;;;;;5043958;28;20045;-86
2022/06/01 13:04:57;;;;;;;5.38;3.45;;;;;;;;;;5052855;28;20106;-86
2022/06/01 13:07:29;;;;;;;5.18;3.33;;;;;;;;;;5034496;28;20103;-85
2022/06/01 13:10:04;;;;;;;4.45;3.03;;;;;;;;;;5051318;28;20037;-86
2022/06/01 13:12:32;;;;;;;4.63;3.10;;;;;;;;;;5050653;28;20099;-86
2022/06/01 13:15:10;;;;;;;3.35;2.45;;;;;;;;;;5051227;28;20481;-85
2022/06/01 13:17:44;;;;;;;2.30;2.10;;;;;;;;;;5061893;28;20099;-85
2022/06/01 13:20:10;;;;;;;3.03;2.45;;;;;;;;;;5069605;28;20438;-85
2022/06/01 13:22:42;;;;;;;3.72;2.50;;;;;;;;;;5071549;28;20051;-86
2022/06/01 13:25:12;;;;;;;3.15;2.40;;;;;;;;;;5070969;28;20052;-85
2022/06/01 13:27:40;;;;;;;5.80;3.00;;;;;;;;;;5052179;28;20057;-85
2022/06/01 13:30:07;;;;;;;3.60;2.40;;;;;;;;;;5056560;28;20112;-85
2022/06/01 13:32:34;;;;;;;5.15;3.20;;;;;;;;;;5058859;28;20133;-86
2022/06/01 13:35:19;;;;;;;3.38;3.08;;;;;;;;;;5050814;28;20037;-86
2022/06/01 13:37:46;;;;;;;2.97;2.67;;;;;;;;;;5050314;28;20040;-85
2022/06/01 13:40:23;;;;;;;4.68;2.20;;;;;;;;;;5070379;28;20117;-86
2022/06/01 13:42:51;;;;;;;4.60;3.17;;;;;;;;;;5069331;28;20049;-85
2022/06/01 13:45:22;;;;;;;5.65;3.08;;;;;;;;;;5070133;28;20059;-85
2022/06/01 13:47:51;;;;;;;6.35;3.55;;;;;;;;;;5054969;28;20045;-85
2022/06/01 13:50:17;;;;;;;9.70;3.95;;;;;;;;;;5050475;28;20056;-85
2022/06/01 13:53:03;;;;;;;5.53;4.32;;;;;;;;;;5064590;28;20512;-86
2022/06/01 13:55:29;;;;;;;;;;;;;;;;;;5043732;28;20413;-85
2022/06/01 13:58:08;;;;;;;5.18;3.35;;;;;;;;;;5069999;28;20003;-85
2022/06/01 14:00:42;;;;;;;6.65;3.80;;;;;;;;;;5070125;28;20102;-85
2022/06/01 14:03:23;;;;;;;4.88;2.67;;;;;;;;;;5049851;28;20040;-85
2022/06/01 14:06:03;;;;;;;4.75;3.42;;;;;;;;;;5052062;28;20056;-85
2022/06/01 14:08:29;;;;;;;4.82;4.40;;;;;;;;;;5069161;28;20041;-85
2022/06/01 14:10:57;;;;;;;5.22;4.30;;;;;;;;;;5069878;28;20563;-85
2022/06/01 14:13:24;;;;;;;4.70;4.30;;;;;;;;;;5071311;28;20472;-85
2022/06/01 14:15:51;;;;;;;4.15;3.75;;;;;;;;;;5064173;28;21930;-85
2022/06/01 14:18:22;;;;;;;4.63;3.90;;;;;;;;;;5055649;28;20121;-85
2022/06/01 14:20:48;;;;;;;3.35;2.65;;;;;;;;;;5053120;28;20461;-85
2022/06/01 14:23:14;;;;;;;4.32;3.40;;;;;;;;;;5082345;28;20052;-87
2022/06/01 14:28:32;;;;;;;4.80;4.30;;;;;;;;;;5044800;28;20064;-86
2022/06/01 14:31:03;;;;;;;4.72;3.28;;;;;;;;;;5046674;28;20408;-86
2022/06/01 14:33:30;;;;;;;4.63;3.33;;;;;;;;;;5051200;28;20186;-87
2022/06/01 14:35:56;;;;;;;5.53;3.63;;;;;;;;;;5039160;28;20048;-86
2022/06/01 14:38:23;;;;;;;4.82;3.63;;;;;;;;;;5047434;28;20045;-86
2022/06/01 14:40:49;;;;;;;3.85;3.25;;;;;;;;;;5050919;28;20402;-87
2022/06/01 14:43:16;;;;;;;3.53;2.70;;;;;;;;;;5057711;28;20136;-86
2022/06/01 14:45:42;;;;;;;3.30;2.63;;;;;;;;;;5049806;28;20045;-87
2022/06/01 14:48:08;;;;;;;2.97;2.67;;;;;;;;;;5050469;28;20064;-87
2022/06/01 14:50:34;;;;;;;4.05;3.33;;;;;;;;;;5038995;28;20481;-87
2022/06/01 14:53:04;;;;;;;2.83;2.45;;;;;;;;;;5055162;28;20055;-87
2022/06/01 14:55:30;;;;;;;3.85;3.05;;;;;;;;;;5046505;28;20477;-86
2022/06/01 14:57:57;;;;;;;4.75;4.22;;;;;;;;;;5048744;28;20501;-86
2022/06/01 15:00:25;;;;;;;3.50;3.20;;;;;;;;;;5049362;28;20378;-87
2022/06/01 15:02:54;;;;;;;5.25;4.43;;;;;;;;;;5054131;28;20469;-88
2022/06/01 15:05:20;;;;;;;5.00;4.50;;;;;;;;;;5048117;28;20040;-87
2022/06/01 15:07:46;;;;;;;5.28;4.78;;;;;;;;;;5048723;28;20387;-92
2022/06/01 15:10:13;;;;;;;4.30;3.90;;;;;;;;;;5053681;28;20504;-87
2022/06/01 15:12:39;;;;;;;4.28;3.90;;;;;;;;;;5048492;28;20481;-86
2022/06/01 15:15:06;;;;;;;3.80;3.40;;;;;;;;;;5066666;28;20056;-87
2022/06/01 15:17:32;;;;;;;4.28;3.90;;;;;;;;;;5069349;28;20116;-86